Walkerville, Montana
Current Conditions -  °F | °C
As of 9:53 AM on Friday 24 Oct 2014 (Local Time) from KBTM Reporting Station
Light Rain Light Rain  
Wind Chill: 40°   Ceiling: 5500
Heat Index: 44°   Visibility: 10mi
Dew Point: 35°   Wind: 7mph
Humidity: 71%   Direction: 310°NW
Pressure: 30.14"   Gusts: NA
Location:  45.9274°N, 112.504°W
Report Text: KBTM 241553Z AUTO 31006KT 10SM -RA SCT043 OVC055 07/02 A3014 RMK AO2 RAB33 SLP195 P0000 T00670017
Loading
Personal Weather Stations






























Interactive Weather Map
Tropical Storm Tracking
New forecast layout! Learn more

10-Day Weather Forecast

Advertisements
Track Severe Weather on mobile